Time;durP1;ratioP1;P1;durP2;ratioP2;P2;SDS_P1;SDS_P2;PMS_P1;PMS_P2;Temp;Humidity;BMP_temperature;BMP_pressure;BME280_temperature;BME280_humidity;BME280_pressure;Samples;Min_cycle;Max_cycle;Signal;HPM_P1;HPM_P2
2021/03/01 00:00:09;;;;;;;23.92;11.63;;;2.60;65.40;;;;;;4988266;28;20217;-79
2021/03/01 00:02:37;;;;;;;19.30;11.77;;;2.50;65.90;;;;;;4988757;28;20212;-80
2021/03/01 00:05:04;;;;;;;25.90;11.70;;;2.40;66.50;;;;;;4988773;28;20717;-78
2021/03/01 00:07:31;;;;;;;20.95;12.30;;;2.40;66.80;;;;;;4988327;28;20201;-79
2021/03/01 00:09:58;;;;;;;20.13;11.43;;;2.40;67.60;;;;;;4989915;28;20264;-78
2021/03/01 00:12:31;;;;;;;19.40;10.90;;;2.40;67.50;;;;;;4991137;28;20221;-78
2021/03/01 00:18:21;;;;;;;19.33;11.82;;;2.20;68.30;;;;;;5742954;23;20228;-77
2021/03/01 00:20:51;;;;;;;21.75;12.88;;;2.20;68.80;;;;;;5051601;28;20214;-76
2021/03/01 00:23:22;;;;;;;22.27;12.48;;;2.10;69.50;;;;;;5051703;28;20207;-77
2021/03/01 00:25:48;;;;;;;23.33;12.23;;;2.10;70.20;;;;;;5051664;28;20239;-80
2021/03/01 00:28:18;;;;;;;20.27;12.13;;;2.10;70.50;;;;;;5051571;28;20270;-78
2021/03/01 00:30:45;;;;;;;22.75;12.77;;;2.00;70.50;;;;;;5050843;28;20267;-78
2021/03/01 00:33:15;;;;;;;23.80;13.40;;;2.00;71.50;;;;;;5030753;28;20235;-79
2021/03/01 00:35:42;;;;;;;27.08;13.00;;;2.00;71.70;;;;;;5049662;28;20227;-78
2021/03/01 00:38:09;;;;;;;23.15;11.75;;;2.00;71.70;;;;;;5050839;28;20328;-78
2021/03/01 00:40:36;;;;;;;25.10;13.45;;;2.10;71.20;;;;;;5055994;28;20242;-77
2021/03/01 00:43:02;;;;;;;20.10;11.80;;;1.90;71.30;;;;;;5056766;28;20705;-79
2021/03/01 00:45:29;;;;;;;20.33;10.45;;;1.90;71.60;;;;;;5058843;28;20323;-76
2021/03/01 00:47:55;;;;;;;21.23;11.52;;;1.90;72.00;;;;;;5058759;28;20199;-76
2021/03/01 00:50:22;;;;;;;22.13;11.80;;;1.80;72.30;;;;;;5057330;28;20203;-77
2021/03/01 00:52:49;;;;;;;20.02;11.85;;;1.70;72.50;;;;;;5053621;28;20208;-78
2021/03/01 00:55:16;;;;;;;21.52;12.68;;;1.70;73.20;;;;;;5053244;28;20238;-79
2021/03/01 00:57:43;;;;;;;24.27;12.88;;;1.70;73.80;;;;;;5052397;28;20207;-80
2021/03/01 01:17:15;;;;;;;23.40;12.02;;;1.60;74.40;;;;;;5068688;28;20181;-79
2021/03/01 01:19:42;;;;;;;22.85;11.50;;;1.50;74.30;;;;;;5067235;28;20229;-79
2021/03/01 01:22:09;;;;;;;23.77;13.52;;;1.50;74.70;;;;;;5063789;28;20578;-79
2021/03/01 01:24:36;;;;;;;21.35;13.05;;;1.40;74.90;;;;;;5065807;28;20206;-80
2021/03/01 01:27:03;;;;;;;22.23;13.52;;;1.30;75.30;;;;;;5062573;28;20217;-79
2021/03/01 01:29:29;;;;;;;21.17;12.15;;;1.20;76.00;;;;;;5059331;28;20582;-78
2021/03/01 01:31:56;;;;;;;27.00;13.73;;;1.30;77.20;;;;;;5059816;28;20297;-79
2021/03/01 01:34:23;;;;;;;29.25;15.02;;;1.30;76.90;;;;;;5067067;28;20241;-79
2021/03/01 01:36:50;;;;;;;27.38;13.95;;;1.20;77.60;;;;;;5076387;28;20202;-78
2021/03/01 01:39:16;;;;;;;26.23;13.48;;;1.20;77.80;;;;;;5071208;28;20274;-79
2021/03/01 01:41:43;;;;;;;29.17;14.57;;;1.20;78.20;;;;;;5071134;28;20221;-78
2021/03/01 01:44:09;;;;;;;27.73;14.05;;;1.10;78.10;;;;;;5070744;28;20294;-79
2021/03/01 01:46:36;;;;;;;25.48;13.80;;;1.00;78.00;;;;;;5064421;28;20290;-78
2021/03/01 01:49:02;;;;;;;21.65;12.30;;;1.00;78.60;;;;;;5071276;28;20236;-79
2021/03/01 01:51:30;;;;;;;23.25;12.52;;;1.10;78.90;;;;;;5070792;28;20207;-79
2021/03/01 01:53:56;;;;;;;26.33;12.05;;;1.10;78.20;;;;;;5071459;28;20221;-77
2021/03/01 02:06:40;;;;;;;20.17;12.00;;;1.10;78.60;;;;;;5650560;22;20246;-78
2021/03/01 02:09:22;;;;;;;26.45;12.82;;;0.90;78.50;;;;;;5049735;28;20201;-77
2021/03/01 02:15:40;;;;;;;27.42;13.55;;;0.80;80.30;;;;;;5039388;28;20230;-78
2021/03/01 02:18:06;;;;;;;22.00;12.35;;;0.80;80.60;;;;;;5036953;28;20219;-78
2021/03/01 02:24:23;;;;;;;20.42;12.15;;;0.70;81.10;;;;;;5042876;28;20202;-78
2021/03/01 02:40:10;;;;;;;24.50;12.80;;;0.90;83.60;;;;;;4900431;29;20219;-78
2021/03/01 02:42:54;;;;;;;25.90;14.52;;;0.90;83.00;;;;;;4900502;29;20294;-77
2021/03/01 02:48:45;;;;;;;25.83;13.10;;;1.00;82.10;;;;;;4883224;29;20223;-78
2021/03/01 02:57:59;;;;;;;20.92;12.48;;;0.90;80.30;;;;;;4840329;29;20191;-77
2021/03/01 03:00:57;;;;;;;26.85;11.68;;;1.00;80.80;;;;;;4836061;29;20199;-76
2021/03/01 03:06:46;;;;;;;26.83;12.40;;;0.90;80.70;;;;;;4796470;29;20290;-78
2021/03/01 03:09:14;;;;;;;22.67;12.02;;;0.80;80.00;;;;;;4809275;29;20203;-77
2021/03/01 03:11:43;;;;;;;22.20;11.93;;;0.80;80.90;;;;;;4805826;29;20216;-76
2021/03/01 03:14:13;;;;;;;21.30;12.07;;;0.80;80.10;;;;;;4789796;29;20212;-78
2021/03/01 03:16:40;;;;;;;31.92;13.15;;;0.70;80.50;;;;;;4788893;29;20247;-78
2021/03/01 03:19:08;;;;;;;23.60;12.55;;;0.70;81.00;;;;;;4789227;29;20216;-78
2021/03/01 03:21:35;;;;;;;22.33;11.85;;;0.70;81.90;;;;;;4789408;29;20227;-78
2021/03/01 03:24:03;;;;;;;21.80;12.70;;;0.70;82.90;;;;;;4789672;29;20725;-78
2021/03/01 03:26:30;;;;;;;22.00;12.52;;;0.70;81.90;;;;;;4792854;29;20351;-78
2021/03/01 03:32:15;;;;;;;21.63;11.93;;;0.60;81.80;;;;;;4848914;29;20281;-78
2021/03/01 03:34:46;;;;;;;25.33;12.48;;;0.60;82.10;;;;;;4862172;28;20237;-77
2021/03/01 03:40:28;;;;;;;20.80;12.25;;;0.60;82.10;;;;;;4979223;28;20632;-77
2021/03/01 03:43:16;;;;;;;24.85;12.10;;;0.50;82.30;;;;;;4973032;28;20240;-78
2021/03/01 03:45:43;;;;;;;22.02;12.23;;;0.60;82.50;;;;;;4987031;28;20233;-77
2021/03/01 03:48:35;;;;;;;25.25;12.90;;;0.50;81.70;;;;;;4996040;28;20216;-78
2021/03/01 03:51:07;;;;;;;22.40;13.27;;;0.50;81.70;;;;;;4980543;28;20205;-80
2021/03/01 03:53:39;;;;;;;19.10;11.70;;;0.50;82.20;;;;;;4979417;28;20275;-80
2021/03/01 03:56:06;;;;;;;24.05;13.07;;;0.60;81.90;;;;;;4992392;28;20246;-80
2021/03/01 03:58:39;;;;;;;18.35;11.68;;;0.70;81.90;;;;;;5018760;28;20212;-80
2021/03/01 04:01:07;;;;;;;23.95;12.95;;;0.70;81.30;;;;;;5019307;28;20571;-81
2021/03/01 04:03:37;;;;;;;22.05;11.80;;;0.60;80.60;;;;;;5024887;28;20203;-79
2021/03/01 04:06:05;;;;;;;24.00;12.45;;;0.70;80.30;;;;;;5035980;28;20204;-80
2021/03/01 04:08:33;;;;;;;25.27;11.88;;;0.60;80.60;;;;;;5055295;28;20226;-78
2021/03/01 04:11:01;;;;;;;25.15;12.55;;;0.70;79.90;;;;;;5054805;28;20326;-79
2021/03/01 04:13:30;;;;;;;23.13;12.10;;;0.70;79.90;;;;;;5046801;28;20599;-80
2021/03/01 04:15:57;;;;;;;25.50;11.43;;;0.70;80.20;;;;;;5054953;28;20258;-79
2021/03/01 04:18:26;;;;;;;27.33;11.63;;;0.70;80.20;;;;;;5052663;28;20203;-79
2021/03/01 04:20:55;;;;;;;23.90;11.40;;;0.60;80.00;;;;;;5051614;28;20204;-79
2021/03/01 04:23:23;;;;;;;18.27;11.73;;;0.60;80.70;;;;;;5047500;28;20200;-78
2021/03/01 04:25:51;;;;;;;28.02;13.13;;;0.60;81.00;;;;;;5055263;28;20214;-78
2021/03/01 04:28:19;;;;;;;26.23;13.48;;;0.60;80.80;;;;;;5052029;28;20215;-78
2021/03/01 04:30:46;;;;;;;22.98;12.63;;;0.70;80.70;;;;;;5053622;28;20203;-79
2021/03/01 04:33:14;;;;;;;25.75;11.68;;;0.70;80.40;;;;;;5052461;28;20218;-79
2021/03/01 04:35:42;;;;;;;24.10;12.75;;;0.70;80.00;;;;;;5052627;28;20235;-78
2021/03/01 04:38:09;;;;;;;20.30;11.05;;;0.60;80.20;;;;;;5036281;28;20375;-78
2021/03/01 04:40:36;;;;;;;21.58;11.20;;;0.70;80.50;;;;;;5051837;28;20207;-78
2021/03/01 04:43:03;;;;;;;24.70;11.90;;;0.70;80.50;;;;;;5038961;28;20214;-79
2021/03/01 04:45:31;;;;;;;21.10;12.60;;;0.60;80.60;;;;;;5037305;28;20222;-79
2021/03/01 04:47:57;;;;;;;27.08;12.68;;;0.60;80.40;;;;;;5036899;28;20207;-80
2021/03/01 04:50:24;;;;;;;27.30;11.18;;;0.60;81.10;;;;;;5036974;28;20207;-79
2021/03/01 04:52:51;;;;;;;21.52;11.75;;;0.60;80.60;;;;;;5037331;28;20222;-79
2021/03/01 04:55:18;;;;;;;20.90;11.60;;;0.50;80.90;;;;;;5036777;28;20238;-79
2021/03/01 04:57:45;;;;;;;23.15;11.88;;;0.60;81.60;;;;;;5042955;28;20222;-78
2021/03/01 05:00:13;;;;;;;22.95;12.85;;;0.60;81.10;;;;;;5042305;28;20663;-79
2021/03/01 05:02:42;;;;;;;22.92;11.73;;;0.60;80.90;;;;;;5038109;28;20667;-78
2021/03/01 05:05:12;;;;;;;19.30;11.15;;;0.60;80.90;;;;;;5021298;28;20227;-77
2021/03/01 05:07:40;;;;;;;19.65;11.30;;;0.60;81.10;;;;;;5036963;28;20594;-77
2021/03/01 05:10:09;;;;;;;25.42;11.45;;;0.60;80.80;;;;;;5037787;28;20234;-78
2021/03/01 05:12:37;;;;;;;25.13;12.30;;;0.60;80.40;;;;;;5037907;28;20655;-77
2021/03/01 05:15:05;;;;;;;23.50;11.77;;;0.60;80.90;;;;;;5038440;28;20235;-77
2021/03/01 05:17:31;;;;;;;24.38;12.65;;;0.50;80.50;;;;;;5053318;28;20218;-77
2021/03/01 05:22:37;;;;;;;24.90;11.73;;;0.40;81.50;;;;;;5283935;23;20242;-78
2021/03/01 05:25:04;;;;;;;23.63;12.10;;;0.30;81.60;;;;;;5060220;28;20223;-78
2021/03/01 05:27:33;;;;;;;29.70;13.98;;;0.30;81.80;;;;;;5060439;28;20211;-78
2021/03/01 05:30:01;;;;;;;25.88;11.73;;;0.20;82.30;;;;;;5064150;28;20233;-78
2021/03/01 05:32:28;;;;;;;22.33;12.00;;;0.20;82.80;;;;;;5057412;28;20213;-76
2021/03/01 05:37:34;;;;;;;25.25;12.80;;;0.10;84.10;;;;;;5890609;22;20572;-78
2021/03/01 05:43:21;;;;;;;25.08;12.35;;;0.10;85.30;;;;;;5030577;28;20203;-78
2021/03/01 05:49:29;;;;;;;25.55;13.13;;;0.00;85.40;;;;;;5030699;28;20212;-77
2021/03/01 05:51:59;;;;;;;22.85;12.77;;;0.00;85.40;;;;;;5029906;23;20226;-79
2021/03/01 05:54:30;;;;;;;26.08;12.68;;;0.00;85.40;;;;;;5036539;28;20220;-79
2021/03/01 05:56:58;;;;;;;33.22;12.50;;;0.10;85.50;;;;;;5049214;28;20207;-80
2021/03/01 05:59:25;;;;;;;26.65;12.90;;;0.10;85.50;;;;;;5053562;28;20203;-79
2021/03/01 06:01:53;;;;;;;22.10;12.80;;;0.10;85.50;;;;;;5042089;28;20215;-78
2021/03/01 06:04:20;;;;;;;25.13;12.88;;;0.00;85.30;;;;;;5055876;28;20191;-80
2021/03/01 06:06:46;;;;;;;25.13;13.57;;;0.10;85.50;;;;;;5054147;28;20575;-79
2021/03/01 06:09:13;;;;;;;26.65;13.13;;;0.10;85.50;;;;;;5050653;28;20212;-81
2021/03/01 06:11:39;;;;;;;24.42;13.52;;;0.00;85.40;;;;;;5049942;28;20227;-79
2021/03/01 06:14:07;;;;;;;29.45;13.25;;;0.00;85.40;;;;;;5050569;28;20213;-81
2021/03/01 06:16:33;;;;;;;24.33;11.85;;;0.00;85.40;;;;;;5046985;28;20237;-79
2021/03/01 06:19:01;;;;;;;19.55;12.45;;;0.00;85.40;;;;;;5046594;28;20202;-78
2021/03/01 06:21:33;;;;;;;24.08;12.95;;;0.10;85.50;;;;;;5051255;28;20227;-80
2021/03/01 06:24:00;;;;;;;23.50;12.45;;;0.10;85.50;;;;;;5050719;28;20210;-78
2021/03/01 06:26:29;;;;;;;25.13;13.43;;;0.20;85.50;;;;;;5053976;28;20211;-79
2021/03/01 06:29:06;;;;;;;24.45;12.48;;;0.20;85.30;;;;;;5054364;28;20210;-78
2021/03/01 06:31:40;;;;;;;25.33;12.30;;;0.30;85.10;;;;;;5052830;28;20219;-80
2021/03/01 06:34:18;;;;;;;21.38;10.95;;;0.30;84.50;;;;;;5055998;28;20194;-84
2021/03/01 06:37:00;;;;;;;22.83;12.60;;;0.40;84.10;;;;;;5056124;28;20225;-83
2021/03/01 06:39:29;;;;;;;22.15;12.75;;;0.50;83.40;;;;;;5056075;28;20215;-84
2021/03/01 06:41:56;;;;;;;21.88;11.18;;;0.50;82.70;;;;;;5052434;28;20219;-84
2021/03/01 06:44:22;;;;;;;24.63;13.48;;;0.50;82.10;;;;;;5055803;28;20187;-83
2021/03/01 06:46:53;;;;;;;22.23;12.18;;;0.50;81.50;;;;;;5054309;28;20195;-83
2021/03/01 06:49:21;;;;;;;24.33;12.55;;;0.60;80.90;;;;;;5036406;28;20212;-83
2021/03/01 06:51:48;;;;;;;22.08;11.98;;;0.50;80.20;;;;;;5033120;28;20244;-84
2021/03/01 06:54:22;;;;;;;20.67;12.32;;;0.60;80.30;;;;;;5051025;28;20191;-84
2021/03/01 06:56:49;;;;;;;21.83;11.18;;;0.60;80.50;;;;;;5055925;28;20198;-83
2021/03/01 06:59:17;;;;;;;25.80;14.05;;;0.80;79.90;;;;;;5056283;28;20196;-83
2021/03/01 07:01:45;;;;;;;26.08;13.65;;;0.80;77.90;;;;;;5054723;28;20255;-81
2021/03/01 07:04:19;;;;;;;24.27;11.70;;;0.90;77.90;;;;;;5049376;28;20207;-82
2021/03/01 07:06:47;;;;;;;24.05;12.40;;;1.00;77.50;;;;;;5039129;28;20204;-84
2021/03/01 07:09:15;;;;;;;23.10;12.68;;;1.00;76.10;;;;;;5057026;28;20247;-83
2021/03/01 07:11:43;;;;;;;20.35;10.75;;;1.20;75.20;;;;;;5056102;28;20274;-84
2021/03/01 07:14:11;;;;;;;26.42;12.00;;;1.30;74.50;;;;;;5057352;28;20275;-82
2021/03/01 07:16:39;;;;;;;24.98;12.27;;;1.40;74.20;;;;;;5058483;28;20238;-83
2021/03/01 07:19:08;;;;;;;22.85;11.48;;;1.50;73.30;;;;;;5046718;28;20207;-83
2021/03/01 07:21:36;;;;;;;20.08;11.18;;;1.60;72.30;;;;;;5047037;28;20223;-83
2021/03/01 07:24:06;;;;;;;26.73;13.65;;;1.70;70.60;;;;;;5048052;28;20286;-82
2021/03/01 07:26:33;;;;;;;20.25;10.75;;;1.80;70.00;;;;;;5049201;28;20221;-82
2021/03/01 07:29:06;;;;;;;22.65;12.50;;;1.90;68.90;;;;;;5049236;28;20199;-82
2021/03/01 07:31:35;;;;;;;18.83;11.40;;;2.00;67.40;;;;;;5048384;28;20215;-83
2021/03/01 07:34:06;;;;;;;20.08;10.65;;;2.10;66.50;;;;;;5047731;28;20207;-82
2021/03/01 07:36:35;;;;;;;19.10;11.55;;;2.30;65.90;;;;;;5047181;28;20261;-82
2021/03/01 07:39:05;;;;;;;20.88;11.70;;;2.40;66.30;;;;;;5048088;28;20229;-81
2021/03/01 07:41:31;;;;;;;19.58;11.38;;;2.40;64.80;;;;;;5046941;28;20227;-82
2021/03/01 07:43:59;;;;;;;24.05;11.30;;;2.60;64.50;;;;;;5044588;28;20207;-81
2021/03/01 07:46:31;;;;;;;19.40;11.35;;;2.60;63.00;;;;;;5045051;28;20691;-80
2021/03/01 07:48:57;;;;;;;20.05;11.57;;;2.80;62.40;;;;;;5045809;28;20362;-80
2021/03/01 07:51:44;;;;;;;19.13;11.25;;;2.90;62.50;;;;;;5042320;28;20231;-80
2021/03/01 07:54:12;;;;;;;22.80;12.00;;;3.00;61.80;;;;;;5040485;28;20270;-81
2021/03/01 07:56:53;;;;;;;20.42;11.55;;;3.10;60.40;;;;;;5046117;28;20223;-81
2021/03/01 07:59:32;;;;;;;18.25;10.25;;;3.20;59.80;;;;;;5047019;28;20222;-81
2021/03/01 08:02:26;;;;;;;19.50;10.23;;;3.30;57.10;;;;;;5033514;28;20287;-80
2021/03/01 08:04:54;;;;;;;18.15;10.02;;;3.40;56.60;;;;;;5014337;28;20216;-80
2021/03/01 08:07:40;;;;;;;25.48;9.85;;;3.50;56.20;;;;;;5028550;28;20261;-81
2021/03/01 08:10:10;;;;;;;19.33;8.98;;;3.50;54.00;;;;;;5030227;28;20301;-81
2021/03/01 08:13:00;;;;;;;20.00;10.85;;;3.60;54.10;;;;;;5001657;28;20263;-81
2021/03/01 08:15:37;;;;;;;18.80;10.23;;;3.70;54.20;;;;;;5006197;28;20212;-81
2021/03/01 08:18:06;;;;;;;16.75;10.10;;;3.80;53.00;;;;;;5003549;28;20291;-81
2021/03/01 08:20:52;;;;;;;19.33;10.30;;;3.90;52.80;;;;;;5006136;28;20232;-81
2021/03/01 08:23:21;;;;;;;19.45;11.68;;;3.90;52.40;;;;;;5002458;28;20188;-81
2021/03/01 08:25:57;;;;;;;15.60;9.65;;;4.00;52.40;;;;;;5001384;28;20223;-81
2021/03/01 08:28:49;;;;;;;15.93;9.23;;;4.10;51.90;;;;;;5000715;28;20212;-80
2021/03/01 08:31:21;;;;;;;14.90;9.80;;;4.30;51.10;;;;;;4992815;28;20232;-81
2021/03/01 08:33:47;;;;;;;13.45;9.45;;;4.30;51.00;;;;;;5000107;28;20219;-81
2021/03/01 08:36:25;;;;;;;21.30;10.95;;;4.40;50.90;;;;;;5001106;28;20259;-80
2021/03/01 08:38:54;;;;;;;18.33;10.02;;;4.50;50.80;;;;;;5002565;28;20228;-81
2021/03/01 08:41:43;;;;;;;18.92;11.02;;;4.60;50.30;;;;;;5002000;28;20229;-81
2021/03/01 08:44:21;;;;;;;15.82;9.63;;;4.60;50.30;;;;;;5003261;28;20235;-83
2021/03/01 08:46:48;;;;;;;17.38;10.30;;;4.70;49.70;;;;;;5004282;28;20231;-81
2021/03/01 08:49:25;;;;;;;15.07;9.85;;;4.80;49.00;;;;;;5004174;28;20227;-81
2021/03/01 08:51:52;;;;;;;17.45;10.15;;;4.80;48.80;;;;;;5005512;28;20267;-81
2021/03/01 08:54:29;;;;;;;14.55;9.77;;;4.70;49.10;;;;;;5016234;28;20204;-82
2021/03/01 08:57:04;;;;;;;15.88;9.80;;;4.80;48.70;;;;;;5013337;28;20615;-81
2021/03/01 08:59:31;;;;;;;17.05;9.98;;;4.90;48.20;;;;;;5014325;28;20192;-86
2021/03/01 09:01:57;;;;;;;19.38;10.35;;;5.00;48.60;;;;;;5107148;23;20300;-90
2021/03/01 09:04:24;;;;;;;15.45;9.77;;;5.20;47.30;;;;;;5017514;28;20228;-85
2021/03/01 09:06:51;;;;;;;16.92;9.48;;;5.30;48.10;;;;;;5014947;28;20292;-82
2021/03/01 09:09:17;;;;;;;16.10;8.23;;;5.40;46.60;;;;;;5008046;28;20216;-82
2021/03/01 09:11:44;;;;;;;18.70;10.55;;;5.60;46.40;;;;;;5003883;28;20220;-80
2021/03/01 09:14:12;;;;;;;15.88;9.30;;;5.60;46.40;;;;;;5061828;23;20270;-78
2021/03/01 09:16:40;;;;;;;17.48;10.20;;;5.70;46.50;;;;;;5052821;28;20238;-79
2021/03/01 09:19:08;;;;;;;13.70;9.30;;;5.80;45.90;;;;;;5050653;28;20203;-78
2021/03/01 09:21:39;;;;;;;14.48;9.80;;;5.90;45.60;;;;;;5048982;28;20207;-79
2021/03/01 09:24:06;;;;;;;19.30;10.23;;;6.00;45.40;;;;;;5049581;28;20237;-79
2021/03/01 09:26:36;;;;;;;17.02;10.00;;;6.10;44.80;;;;;;5052137;28;20198;-78
2021/03/01 09:29:06;;;;;;;14.63;9.63;;;6.10;44.50;;;;;;5053578;28;20203;-78
2021/03/01 09:31:39;;;;;;;15.60;10.48;;;6.20;44.50;;;;;;5052762;28;20203;-78
2021/03/01 09:34:10;;;;;;;16.98;10.85;;;6.30;44.50;;;;;;5052527;28;20231;-77
2021/03/01 09:36:39;;;;;;;17.77;10.30;;;6.40;44.10;;;;;;5052126;28;20227;-78
2021/03/01 09:39:09;;;;;;;17.35;9.77;;;6.60;44.00;;;;;;5053581;28;20215;-77
2021/03/01 09:41:37;;;;;;;13.23;9.43;;;6.70;43.40;;;;;;5054979;28;20199;-78
2021/03/01 09:44:05;;;;;;;18.40;9.10;;;6.70;43.20;;;;;;5054004;28;20223;-78
2021/03/01 09:46:32;;;;;;;15.35;9.85;;;6.80;42.90;;;;;;5045258;28;20199;-79
2021/03/01 09:49:02;;;;;;;17.95;9.88;;;6.80;42.80;;;;;;5047131;28;20295;-78
2021/03/01 09:51:30;;;;;;;16.58;9.57;;;6.90;42.70;;;;;;5049250;28;20211;-79
2021/03/01 09:54:00;;;;;;;10.10;7.90;;;7.10;42.70;;;;;;5047753;28;20227;-78
2021/03/01 09:56:38;;;;;;;17.00;8.82;;;7.20;41.80;;;;;;5036223;28;20524;-79
2021/03/01 09:59:05;;;;;;;14.57;8.40;;;7.40;41.30;;;;;;5018338;28;20207;-78
2021/03/01 10:01:32;;;;;;;14.10;9.27;;;7.50;41.20;;;;;;5052997;28;20207;-76
2021/03/01 10:03:59;;;;;;;13.35;8.90;;;7.50;40.90;;;;;;5067309;28;20241;-78
2021/03/01 10:06:33;;;;;;;14.82;9.30;;;7.60;40.60;;;;;;5063442;28;20200;-76
2021/03/01 10:09:32;;;;;;;12.35;8.80;;;7.80;40.20;;;;;;5037297;28;20191;-78
2021/03/01 10:12:02;;;;;;;15.07;9.20;;;7.70;40.50;;;;;;5006938;28;20196;-79
2021/03/01 10:14:30;;;;;;;11.88;8.45;;;7.90;40.00;;;;;;5242667;23;20227;-80
2021/03/01 10:16:57;;;;;;;13.57;9.18;;;8.00;38.80;;;;;;5038087;28;20234;-79
2021/03/01 10:19:25;;;;;;;13.20;9.23;;;7.90;38.70;;;;;;5038521;28;20179;-79
2021/03/01 10:21:51;;;;;;;14.27;9.10;;;8.00;38.80;;;;;;5037772;28;20195;-79
2021/03/01 10:24:34;;;;;;;14.25;9.57;;;8.20;38.90;;;;;;5037818;28;20208;-80
2021/03/01 10:27:03;;;;;;;17.70;10.55;;;8.50;39.20;;;;;;5695093;23;21779;-78
2021/03/01 10:32:18;;;;;;;13.18;9.25;;;8.60;37.50;;;;;;5520679;23;20235;-78
2021/03/01 10:34:47;;;;;;;16.00;10.02;;;8.70;37.80;;;;;;5012952;28;20228;-80
2021/03/01 10:37:22;;;;;;;13.68;9.43;;;8.90;36.60;;;;;;5018009;28;20281;-78
2021/03/01 10:39:51;;;;;;;11.52;8.23;;;8.90;36.40;;;;;;5013452;28;20735;-79
2021/03/01 10:42:21;;;;;;;17.67;8.40;;;9.10;36.50;;;;;;5012396;28;20699;-78
2021/03/01 10:44:53;;;;;;;14.32;9.18;;;9.20;35.50;;;;;;5013401;28;20224;-79
2021/03/01 10:47:36;;;;;;;12.60;8.23;;;9.30;34.90;;;;;;5010244;28;20195;-78
2021/03/01 11:00:10;;;;;;;11.20;8.32;;;9.90;33.20;;;;;;4871945;29;20198;-79
2021/03/01 11:08:18;;;;;;;12.40;8.52;;;9.80;34.00;;;;;;4815177;29;20353;-79
2021/03/01 11:10:46;;;;;;;15.05;9.23;;;9.90;33.30;;;;;;4814433;29;20275;-80
2021/03/01 11:13:31;;;;;;;9.20;6.97;;;10.00;31.70;;;;;;4815065;29;20330;-81
2021/03/01 11:15:57;;;;;;;12.18;8.13;;;10.10;31.70;;;;;;4816265;29;20231;-80
2021/03/01 11:18:24;;;;;;;15.45;8.48;;;10.10;31.60;;;;;;4850901;29;20222;-80
2021/03/01 11:23:42;;;;;;;13.05;7.78;;;10.10;30.50;;;;;;4861004;29;20251;-79
2021/03/01 11:26:14;;;;;;;12.93;8.35;;;10.30;30.40;;;;;;4862510;29;20255;-77
2021/03/01 11:28:45;;;;;;;9.95;7.47;;;10.50;30.00;;;;;;4857029;29;20230;-77
2021/03/01 11:31:17;;;;;;;11.55;8.55;;;10.70;30.10;;;;;;4800363;29;20225;-79
2021/03/01 11:33:49;;;;;;;11.90;7.97;;;10.70;30.10;;;;;;4869876;29;20649;-79
2021/03/01 11:36:31;;;;;;;9.57;7.00;;;10.80;30.20;;;;;;4877916;29;20233;-78
2021/03/01 11:39:00;;;;;;;12.68;8.20;;;11.00;28.70;;;;;;4895062;29;20276;-80
2021/03/01 11:41:27;;;;;;;10.95;7.00;;;11.10;29.00;;;;;;4892989;29;20217;-80
2021/03/01 11:43:54;;;;;;;10.75;7.93;;;11.20;29.00;;;;;;4894125;29;20227;-77
2021/03/01 11:46:21;;;;;;;10.88;7.35;;;11.10;29.10;;;;;;4921851;29;20188;-81
2021/03/01 11:48:48;;;;;;;12.07;8.05;;;11.30;28.40;;;;;;4920299;29;20204;-76
2021/03/01 11:51:17;;;;;;;10.13;8.13;;;11.30;28.70;;;;;;4920321;29;20204;-78
2021/03/01 11:53:46;;;;;;;11.25;7.55;;;11.40;27.40;;;;;;4934470;29;20387;-78
2021/03/01 11:56:14;;;;;;;10.30;8.23;;;11.60;26.70;;;;;;4937227;29;20227;-80
2021/03/01 11:58:41;;;;;;;12.30;7.57;;;11.70;26.90;;;;;;4933688;29;20797;-80
2021/03/01 12:01:09;;;;;;;9.90;6.85;;;11.70;26.80;;;;;;4932665;29;20229;-80
2021/03/01 12:03:36;;;;;;;11.82;7.22;;;11.70;26.20;;;;;;4928775;29;20262;-79
2021/03/01 12:06:03;;;;;;;9.40;7.00;;;11.60;25.20;;;;;;4931005;29;20203;-79
2021/03/01 12:08:31;;;;;;;7.95;6.55;;;11.80;25.90;;;;;;4928560;29;20226;-78
2021/03/01 12:10:57;;;;;;;7.47;5.45;;;12.10;24.10;;;;;;4934411;29;20247;-76
2021/03/01 12:13:24;;;;;;;10.38;6.15;;;12.00;21.70;;;;;;4934990;29;20220;-77
2021/03/01 12:15:50;;;;;;;7.05;5.93;;;12.30;21.70;;;;;;4931850;29;20242;-79
2021/03/01 12:18:17;;;;;;;6.50;4.95;;;12.40;21.00;;;;;;4931781;29;20211;-79
2021/03/01 12:20:43;;;;;;;8.55;5.63;;;12.60;20.80;;;;;;4929735;29;20240;-79
2021/03/01 12:23:10;;;;;;;7.50;5.40;;;12.70;20.10;;;;;;4932953;29;20274;-77
2021/03/01 12:25:37;;;;;;;8.85;6.03;;;12.60;20.60;;;;;;4931049;29;20208;-78
2021/03/01 12:28:04;;;;;;;7.00;5.50;;;12.70;20.00;;;;;;4929345;29;20199;-78
2021/03/01 12:30:31;;;;;;;8.48;6.10;;;12.70;19.40;;;;;;4924128;29;20199;-80
2021/03/01 12:32:57;;;;;;;10.18;5.75;;;12.80;20.00;;;;;;4930523;29;20310;-78
2021/03/01 12:35:27;;;;;;;8.90;5.50;;;13.00;19.60;;;;;;4925183;29;20300;-80
2021/03/01 12:37:53;;;;;;;5.88;4.88;;;13.00;19.80;;;;;;4917587;29;20196;-79
2021/03/01 12:40:21;;;;;;;7.35;5.28;;;13.10;19.40;;;;;;4928614;29;20270;-80
2021/03/01 12:42:48;;;;;;;7.85;5.70;;;13.10;19.60;;;;;;4938211;29;20219;-78
2021/03/01 12:45:16;;;;;;;6.82;5.30;;;13.20;19.00;;;;;;4936679;29;20247;-77
2021/03/01 12:47:50;;;;;;;7.05;4.88;;;13.10;18.90;;;;;;4963481;28;20228;-78
2021/03/01 12:50:17;;;;;;;8.90;5.70;;;13.20;18.80;;;;;;5205700;23;20257;-79
2021/03/01 12:52:44;;;;;;;19.27;6.38;;;13.10;18.90;;;;;;5042669;28;20226;-79
2021/03/01 12:55:15;;;;;;;8.85;6.35;;;13.30;19.40;;;;;;5038984;28;20230;-79
2021/03/01 12:57:42;;;;;;;9.65;6.55;;;13.20;20.00;;;;;;5046419;28;20199;-80
2021/03/01 13:00:11;;;;;;;12.07;7.75;;;13.20;21.00;;;;;;5031363;28;20204;-80
2021/03/01 13:02:38;;;;;;;9.00;7.13;;;13.30;22.40;;;;;;5027664;28;20288;-79
2021/03/01 13:05:06;;;;;;;10.40;7.80;;;13.20;23.10;;;;;;5023537;28;20250;-79
2021/03/01 13:07:32;;;;;;;8.30;7.00;;;13.30;23.10;;;;;;5024405;28;20343;-79
2021/03/01 13:10:00;;;;;;;10.05;7.45;;;13.50;22.60;;;;;;5036551;28;20215;-79
2021/03/01 13:12:27;;;;;;;12.18;7.75;;;13.50;22.20;;;;;;5052971;28;20197;-77
2021/03/01 13:14:54;;;;;;;10.98;7.88;;;13.50;22.80;;;;;;5059193;28;20222;-79
2021/03/01 13:17:22;;;;;;;12.25;8.70;;;13.30;23.40;;;;;;5057914;28;20211;-78
2021/03/01 13:19:53;;;;;;;10.65;7.55;;;13.20;23.70;;;;;;5038861;28;20203;-77
2021/03/01 13:22:20;;;;;;;11.43;8.23;;;13.20;24.00;;;;;;5053966;28;20187;-78
2021/03/01 13:24:46;;;;;;;10.43;7.30;;;13.30;22.70;;;;;;5056379;28;20220;-79
2021/03/01 13:27:16;;;;;;;10.90;7.90;;;13.20;22.30;;;;;;5056345;28;20207;-78
2021/03/01 13:29:43;;;;;;;13.30;8.27;;;13.20;24.00;;;;;;5055630;28;20202;-81
2021/03/01 13:34:58;;;;;;;12.73;8.60;;;13.20;24.00;;;;;;5044479;28;20227;-79
2021/03/01 13:37:24;;;;;;;12.13;8.60;;;13.20;24.00;;;;;;5051458;28;20215;-79
2021/03/01 13:39:51;;;;;;;10.55;8.07;;;13.20;24.00;;;;;;5047723;28;20203;-80
2021/03/01 13:42:18;;;;;;;9.70;7.47;;;13.30;24.10;;;;;;5030230;28;20223;-78
2021/03/01 13:44:44;;;;;;;10.75;7.22;;;13.30;24.10;;;;;;5028922;28;20254;-79
2021/03/01 13:47:17;;;;;;;9.70;7.43;;;13.40;23.20;;;;;;5021254;28;20574;-79
2021/03/01 13:49:45;;;;;;;10.05;7.88;;;13.50;22.80;;;;;;5012573;28;20687;-77
2021/03/01 13:52:14;;;;;;;9.13;7.50;;;13.40;23.10;;;;;;5030252;28;20227;-78
2021/03/01 13:54:40;;;;;;;8.75;7.50;;;13.40;23.20;;;;;;5028106;28;20258;-80
2021/03/01 13:57:07;;;;;;;14.35;8.77;;;13.40;23.50;;;;;;5029966;28;20236;-80
2021/03/01 13:59:34;;;;;;;11.70;8.23;;;13.40;24.10;;;;;;5026520;28;20203;-79
2021/03/01 14:02:00;;;;;;;11.82;8.82;;;13.30;24.10;;;;;;5020424;28;20660;-79
2021/03/01 14:04:27;;;;;;;12.38;9.02;;;13.30;24.10;;;;;;5020163;28;20215;-79
2021/03/01 14:06:53;;;;;;;12.93;8.65;;;13.20;24.00;;;;;;5022828;28;20215;-79
2021/03/01 14:09:20;;;;;;;15.15;8.88;;;13.30;24.10;;;;;;5027290;28;20200;-79
2021/03/01 14:11:47;;;;;;;12.43;8.15;;;13.40;24.10;;;;;;5027493;28;20204;-78
2021/03/01 14:14:13;;;;;;;18.73;9.05;;;13.50;24.00;;;;;;5030955;28;20255;-77
2021/03/01 14:16:40;;;;;;;22.38;8.10;;;13.40;24.10;;;;;;5030925;28;20726;-80
2021/03/01 14:19:14;;;;;;;12.95;8.15;;;13.30;24.10;;;;;;5029340;28;20219;-79
2021/03/01 14:21:41;;;;;;;13.32;9.77;;;13.50;24.20;;;;;;5020590;28;20222;-78
2021/03/01 14:24:09;;;;;;;10.73;8.40;;;13.50;24.20;;;;;;5018945;28;20342;-78
2021/03/01 14:26:37;;;;;;;14.65;9.13;;;13.40;24.10;;;;;;5020227;28;20211;-79
2021/03/01 14:29:04;;;;;;;12.23;8.20;;;13.50;24.20;;;;;;5019653;28;20594;-80
2021/03/01 14:31:30;;;;;;;12.63;8.85;;;13.50;24.20;;;;;;5026253;28;20656;-79
2021/03/01 14:33:57;;;;;;;10.98;8.35;;;13.50;24.20;;;;;;5025460;28;20227;-79
2021/03/01 14:36:24;;;;;;;13.65;8.40;;;13.60;24.30;;;;;;5018502;28;20226;-78